Terminal Aerodrome Forecast
Issued by NWS Dallas/Fort Worth, TX

Home | Current Version | Previous Version | Text Only | Print | Product List | Glossary On
Versions: 1 2 3 4 5 6 7 8 9 10 11 12 13 14 15 16 17 18 19 20 21 22 23 24 25 26 27 28 29 30 31 32 33
000
FTUS44 KFWD 192000 AAA
TAFDFW
TAF AMD
KDFW 192056Z 1921/2024 12009KT P6SM SCT035 BKN070
     FM201000 13006KT P6SM BKN030
     FM201200 15006KT 6SM BR OVC012
     FM201600 13007KT P6SM OVC022
     FM201800 14007KT P6SM BKN035=

USA.gov is the U.S. government's official web portal to all federal, state and local government web resources and services.